Terminal Aerodrome Forecast
Issued by NWS

Home | Current Version | Previous Version | Text Only | Print | Product List | Glossary On
Versions: 1 2 3 4 5 6 7 8 9 10 11 12 13 14 15 16 17 18 19 20 21 22 23 24 25
000
FTUS42 KGSP 240538
TAFHKY
TAF
KHKY 240538Z 2406/2506 VRB02KT 2SM BR OVC003
     FM241400 14004KT 3SM BR VCSH OVC008
     FM241600 15006KT P6SM -SHRA VCTS OVC016CB
     FM250000 18007KT 4SM -SHRA BR VCTS OVC025CB
     FM250400 21004KT 4SM BR BKN070=

USA.gov is the U.S. government's official web portal to all federal, state and local government web resources and services.